Time;durP1;ratioP1;P1;durP2;ratioP2;P2;SDS_P1;SDS_P2;PMS_P1;PMS_P2;Temp;Humidity;BMP_temperature;BMP_pressure;BME280_temperature;BME280_humidity;BME280_pressure;Samples;Min_cycle;Max_cycle;Signal;HPM_P1;HPM_P2
2022/09/19 00:01:25;;;;;;;5.25;4.00;;;11.10;99.90;;;;;;5079827;28;20028;-77
2022/09/19 00:03:59;;;;;;;7.68;5.07;;;11.10;99.90;;;;;;5075825;28;20489;-77
2022/09/19 00:06:27;;;;;;;5.20;4.35;;;11.10;99.90;;;;;;5069157;28;20024;-77
2022/09/19 00:08:54;;;;;;;4.93;3.90;;;11.00;99.90;;;;;;5075301;28;20016;-77
2022/09/19 00:11:20;;;;;;;5.55;4.30;;;11.00;99.90;;;;;;5062337;28;20021;-77
2022/09/19 00:13:48;;;;;;;6.38;4.28;;;10.90;99.90;;;;;;5067024;28;20093;-77
2022/09/19 00:16:38;;;;;;;9.40;4.38;;;10.90;99.90;;;;;;5069955;28;20020;-76
2022/09/19 00:19:06;;;;;;;7.40;4.95;;;10.80;99.90;;;;;;5062952;28;20049;-76
2022/09/19 00:21:39;;;;;;;6.90;4.63;;;10.80;99.90;;;;;;5066617;28;20077;-77
2022/09/19 00:26:53;;;;;;;4.93;4.10;;;10.80;99.90;;;;;;5071052;28;20074;-76
2022/09/19 00:29:19;;;;;;;6.18;4.78;;;10.80;99.90;;;;;;5073253;28;20059;-76
2022/09/19 00:31:45;;;;;;;5.50;4.40;;;10.70;99.90;;;;;;5074086;28;20439;-77
2022/09/19 00:34:14;;;;;;;7.45;4.65;;;10.70;99.90;;;;;;5078907;28;20138;-77
2022/09/19 00:36:42;;;;;;;5.93;4.68;;;10.70;99.90;;;;;;5076567;28;20073;-76
2022/09/19 00:39:08;;;;;;;5.18;4.10;;;10.60;99.90;;;;;;5079487;28;20070;-77
2022/09/19 00:41:36;;;;;;;7.18;4.00;;;10.60;99.90;;;;;;5062028;28;20041;-77
2022/09/19 00:44:25;;;;;;;7.35;4.30;;;10.60;99.90;;;;;;5059808;28;20021;-76
2022/09/19 00:47:12;;;;;;;11.50;4.53;;;10.50;99.90;;;;;;5058019;28;20032;-76
2022/09/19 00:49:43;;;;;;;5.95;3.60;;;10.50;99.90;;;;;;5069804;28;20496;-77
2022/09/19 00:52:33;;;;;;;6.25;3.63;;;10.50;99.90;;;;;;5079182;28;20024;-77
2022/09/19 00:54:59;;;;;;;5.53;3.88;;;10.50;99.90;;;;;;5071914;28;20033;-77
2022/09/19 00:57:33;;;;;;;6.38;4.10;;;10.50;99.90;;;;;;5066423;28;20078;-77
2022/09/19 01:00:00;;;;;;;6.90;4.22;;;10.50;99.90;;;;;;5076323;28;20107;-77
2022/09/19 01:02:28;;;;;;;5.00;3.65;;;10.50;99.90;;;;;;5078093;28;20023;-76
2022/09/19 01:04:54;;;;;;;4.68;3.63;;;10.40;99.90;;;;;;5068346;28;20371;-77
2022/09/19 01:07:54;;;;;;;5.68;3.92;;;10.40;99.90;;;;;;5072476;28;20032;-77
2022/09/19 01:10:55;;;;;;;7.82;3.55;;;10.40;99.90;;;;;;5054811;28;20048;-77
2022/09/19 01:13:37;;;;;;;4.70;3.70;;;10.40;99.90;;;;;;5052028;28;20421;-76
2022/09/19 01:16:20;;;;;;;4.55;3.40;;;10.30;99.90;;;;;;5063865;28;20025;-77
2022/09/19 01:19:05;;;;;;;3.80;3.25;;;10.30;99.90;;;;;;5070068;28;20037;-76
2022/09/19 01:21:53;;;;;;;4.07;3.30;;;10.20;99.90;;;;;;5067047;28;20009;-77
2022/09/19 01:24:41;;;;;;;8.63;3.03;;;10.20;99.90;;;;;;5077359;28;20161;-76
2022/09/19 01:27:54;;;;;;;5.55;3.60;;;10.20;99.90;;;;;;5065404;28;20084;-76
2022/09/19 01:30:20;;;;;;;8.25;4.10;;;10.20;99.90;;;;;;5071912;28;20123;-77
2022/09/19 01:33:25;;;;;;;4.43;3.70;;;10.20;99.90;;;;;;5075945;28;20062;-77
2022/09/19 01:35:54;;;;;;;4.93;3.60;;;10.20;99.90;;;;;;5041048;28;20055;-77
2022/09/19 01:38:26;;;;;;;5.32;3.65;;;10.20;99.90;;;;;;5061450;28;20025;-77
2022/09/19 01:40:53;;;;;;;10.77;3.50;;;10.20;99.90;;;;;;5059769;28;20103;-76
2022/09/19 01:43:20;;;;;;;5.15;3.45;;;10.20;99.90;;;;;;5063981;28;20787;-77
2022/09/19 01:45:47;;;;;;;5.57;3.47;;;10.20;99.90;;;;;;5062201;28;20433;-77
2022/09/19 01:48:25;;;;;;;6.85;3.53;;;10.20;99.90;;;;;;5067665;28;20138;-76
2022/09/19 01:50:51;;;;;;;5.43;3.22;;;10.20;99.90;;;;;;5064955;28;20036;-77
2022/09/19 01:53:22;;;;;;;3.55;3.03;;;10.10;99.90;;;;;;5069048;28;20024;-77
2022/09/19 01:56:13;;;;;;;4.28;3.10;;;10.10;99.90;;;;;;5067850;28;20033;-77
2022/09/19 01:59:03;;;;;;;4.00;3.28;;;10.10;99.90;;;;;;5074692;28;20029;-76
2022/09/19 02:01:47;;;;;;;5.18;3.55;;;10.10;99.90;;;;;;5066900;28;20017;-77
2022/09/19 02:04:18;;;;;;;4.72;3.30;;;10.00;99.90;;;;;;5074485;28;20028;-76
2022/09/19 02:07:01;;;;;;;6.13;3.72;;;10.00;99.90;;;;;;5077321;28;20025;-76
2022/09/19 02:09:41;;;;;;;4.50;3.03;;;10.00;99.90;;;;;;5057238;28;20420;-76
2022/09/19 02:12:10;;;;;;;4.72;3.45;;;10.00;99.90;;;;;;5059270;28;20036;-76
2022/09/19 02:14:40;;;;;;;6.03;3.72;;;10.00;99.90;;;;;;5060254;28;20036;-76
2022/09/19 02:17:09;;;;;;;5.07;3.65;;;10.00;99.90;;;;;;5063528;28;20044;-77
2022/09/19 02:19:44;;;;;;;3.92;3.20;;;9.90;99.90;;;;;;5086606;28;20017;-76
2022/09/19 02:22:22;;;;;;;8.00;4.07;;;9.90;99.90;;;;;;5067999;28;20035;-76
2022/09/19 02:24:51;;;;;;;4.60;3.70;;;9.90;99.90;;;;;;5064398;28;20017;-76
2022/09/19 02:27:23;;;;;;;4.18;3.50;;;9.80;99.90;;;;;;5071663;28;20373;-76
2022/09/19 02:29:54;;;;;;;6.03;3.97;;;9.80;99.90;;;;;;5068654;28;20017;-76
2022/09/19 02:32:21;;;;;;;4.50;3.60;;;9.80;99.90;;;;;;5073739;28;20107;-76
2022/09/19 02:34:49;;;;;;;7.10;3.63;;;9.70;99.90;;;;;;5072268;28;20100;-76
2022/09/19 02:37:21;;;;;;;5.00;4.22;;;9.70;99.90;;;;;;5075790;28;20045;-76
2022/09/19 02:40:02;;;;;;;4.32;3.60;;;9.70;99.90;;;;;;5071939;28;20013;-76
2022/09/19 02:43:03;;;;;;;6.00;3.70;;;9.70;99.90;;;;;;5057110;28;20457;-76
2022/09/19 02:45:39;;;;;;;5.65;3.92;;;9.60;99.90;;;;;;5039288;28;20033;-76
2022/09/19 02:48:15;;;;;;;6.75;4.43;;;9.50;99.90;;;;;;5062372;28;20052;-76
2022/09/19 02:51:05;;;;;;;7.90;3.80;;;9.50;99.90;;;;;;5061335;28;20465;-76
2022/09/19 02:53:38;;;;;;;6.55;3.80;;;9.40;99.90;;;;;;5061734;28;20436;-76
2022/09/19 02:56:06;;;;;;;5.80;3.58;;;9.40;99.90;;;;;;5064972;28;20574;-76
2022/09/19 02:58:46;;;;;;;7.40;3.70;;;9.40;99.90;;;;;;5070292;28;20039;-76
2022/09/19 03:01:19;;;;;;;8.23;4.15;;;9.30;99.90;;;;;;5063466;28;20028;-76
2022/09/19 03:04:35;;;;;;;4.35;3.85;;;9.30;99.90;;;;;;5070285;28;20051;-76
2022/09/19 03:06:44;;;;;;;5.15;4.10;;;9.30;99.90;;;;;;5077070;28;20055;-76
2022/09/19 03:09:13;;;;;;;7.28;3.95;;;9.20;99.90;;;;;;5056016;28;20033;-76
2022/09/19 03:11:42;;;;;;;6.68;4.07;;;9.20;99.90;;;;;;5057885;28;20036;-76
2022/09/19 03:14:09;;;;;;;6.57;4.20;;;9.10;99.90;;;;;;5060177;28;20036;-76
2022/09/19 03:16:41;;;;;;;6.03;3.75;;;9.10;99.90;;;;;;5060140;28;20032;-76
2022/09/19 03:19:09;;;;;;;8.07;4.15;;;9.10;99.90;;;;;;5065172;28;20033;-76
2022/09/19 03:21:37;;;;;;;5.63;4.25;;;9.00;99.90;;;;;;5062206;28;20024;-76
2022/09/19 03:24:04;;;;;;;6.35;4.03;;;9.00;99.90;;;;;;5068458;28;20104;-76
2022/09/19 03:26:34;;;;;;;7.18;4.45;;;9.00;99.90;;;;;;5069406;28;20388;-76
2022/09/19 03:29:03;;;;;;;4.15;3.70;;;9.00;99.90;;;;;;5070512;28;20119;-76
2022/09/19 03:31:30;;;;;;;4.80;4.15;;;9.00;99.90;;;;;;5068796;28;20032;-76
2022/09/19 03:33:56;;;;;;;5.35;4.22;;;8.90;99.90;;;;;;5072781;28;20044;-76
2022/09/19 03:36:23;;;;;;;11.48;4.95;;;8.90;99.90;;;;;;5071179;28;20100;-76
2022/09/19 03:38:49;;;;;;;6.45;3.80;;;8.90;99.90;;;;;;5074449;28;20025;-77
2022/09/19 03:41:19;;;;;;;11.85;4.43;;;8.90;99.90;;;;;;5073261;28;20021;-76
2022/09/19 03:43:46;;;;;;;11.02;4.25;;;9.00;99.90;;;;;;5057724;28;20025;-76
2022/09/19 03:46:22;;;;;;;8.90;4.85;;;9.00;99.90;;;;;;5060278;28;20099;-77
2022/09/19 03:48:48;;;;;;;8.55;4.95;;;8.90;99.90;;;;;;5059534;28;20492;-76
2022/09/19 03:51:16;;;;;;;6.60;4.30;;;8.90;99.90;;;;;;5062399;28;20013;-76
2022/09/19 03:53:43;;;;;;;5.00;3.80;;;8.90;99.90;;;;;;5062698;28;20045;-76
2022/09/19 03:56:13;;;;;;;5.28;3.85;;;8.90;99.90;;;;;;5068993;28;20083;-76
2022/09/19 03:58:40;;;;;;;8.45;3.70;;;8.90;99.90;;;;;;5072321;28;20031;-76
2022/09/19 04:01:07;;;;;;;5.22;3.42;;;8.80;99.90;;;;;;5077425;28;20025;-76
2022/09/19 04:03:37;;;;;;;5.82;3.30;;;8.80;99.90;;;;;;5076983;28;20112;-76
2022/09/19 04:06:04;;;;;;;6.60;3.88;;;8.80;99.90;;;;;;5066919;28;20048;-76
2022/09/19 04:08:31;;;;;;;5.90;3.88;;;8.80;99.90;;;;;;5065842;28;20029;-76
2022/09/19 04:10:58;;;;;;;6.32;4.57;;;8.80;99.90;;;;;;5060493;28;20053;-76
2022/09/19 04:13:23;;;;;;;7.07;4.18;;;8.80;99.90;;;;;;5063706;28;20083;-76
2022/09/19 04:15:50;;;;;;;3.90;3.58;;;8.80;99.90;;;;;;5066488;28;20029;-76
2022/09/19 04:18:18;;;;;;;6.25;4.03;;;8.80;99.90;;;;;;5063726;28;20481;-76
2022/09/19 04:20:46;;;;;;;4.57;3.65;;;8.80;99.90;;;;;;5069020;28;20602;-76
2022/09/19 04:23:16;;;;;;;7.57;3.40;;;8.70;99.90;;;;;;5066305;28;20021;-76
2022/09/19 04:25:43;;;;;;;6.18;4.60;;;8.70;99.90;;;;;;5075477;28;20024;-76
2022/09/19 04:28:11;;;;;;;7.60;3.90;;;8.70;99.90;;;;;;5068794;28;20032;-76
2022/09/19 04:30:40;;;;;;;4.50;4.03;;;8.70;99.90;;;;;;5073181;28;20065;-76
2022/09/19 04:33:08;;;;;;;5.57;4.10;;;8.60;99.90;;;;;;5069681;28;20021;-76
2022/09/19 04:35:35;;;;;;;9.23;4.95;;;8.60;99.90;;;;;;5074744;28;20029;-77
2022/09/19 04:38:17;;;;;;;10.13;4.22;;;8.60;99.90;;;;;;5073496;28;20085;-76
2022/09/19 04:40:48;;;;;;;10.57;4.38;;;8.60;99.90;;;;;;5078325;28;20058;-76
2022/09/19 04:43:18;;;;;;;6.13;4.68;;;8.50;99.90;;;;;;5072093;28;20108;-76
2022/09/19 04:45:47;;;;;;;;;;;8.50;99.90;;;;;;5059262;28;20079;-76
2022/09/19 04:48:13;;;;;;;9.27;4.72;;;8.50;99.90;;;;;;5062518;28;19995;-76
2022/09/19 04:50:40;;;;;;;5.25;4.38;;;8.40;99.90;;;;;;5061692;28;20023;-76
2022/09/19 04:53:06;;;;;;;5.68;3.90;;;8.40;99.90;;;;;;5064585;28;20496;-76
2022/09/19 04:55:32;;;;;;;5.90;4.32;;;8.40;99.90;;;;;;5063074;28;20025;-76
2022/09/19 04:58:00;;;;;;;8.35;4.07;;;8.50;99.90;;;;;;5074400;28;20429;-76
2022/09/19 05:00:38;;;;;;;8.20;4.78;;;8.50;99.90;;;;;;5071213;28;20025;-76
2022/09/19 05:03:15;;;;;;;5.50;4.45;;;8.40;99.90;;;;;;5066871;28;20017;-76
2022/09/19 05:05:50;;;;;;;5.57;4.10;;;8.40;99.90;;;;;;5073279;28;20100;-76
2022/09/19 05:08:25;;;;;;;5.38;4.40;;;8.40;99.90;;;;;;5076749;28;20036;-76
2022/09/19 05:10:54;;;;;;;5.97;4.30;;;8.40;99.90;;;;;;5072576;28;20021;-76
2022/09/19 05:13:22;;;;;;;5.18;4.15;;;8.50;99.90;;;;;;5058484;28;20025;-76
2022/09/19 05:15:51;;;;;;;5.38;4.30;;;8.50;99.90;;;;;;5062330;28;20484;-76
2022/09/19 05:18:20;;;;;;;7.00;4.32;;;8.40;99.90;;;;;;5061865;28;20032;-76
2022/09/19 05:20:46;;;;;;;6.22;4.72;;;8.30;99.90;;;;;;5066831;28;20105;-76
2022/09/19 05:23:13;;;;;;;6.45;4.25;;;8.40;99.90;;;;;;5064430;28;20389;-76
2022/09/19 05:25:40;;;;;;;6.38;4.35;;;8.40;99.90;;;;;;5074521;28;20024;-76
2022/09/19 05:28:07;;;;;;;6.13;4.80;;;8.40;99.90;;;;;;5068291;28;20036;-76
2022/09/19 05:30:36;;;;;;;8.02;4.65;;;8.30;99.90;;;;;;5072685;28;20024;-76
2022/09/19 05:33:03;;;;;;;11.18;4.88;;;8.30;99.90;;;;;;5071168;28;20029;-76
2022/09/19 05:35:31;;;;;;;9.85;4.90;;;8.30;99.90;;;;;;5075663;28;20484;-76
2022/09/19 05:37:57;;;;;;;11.13;4.20;;;8.30;99.90;;;;;;5075640;28;20033;-76
2022/09/19 05:40:27;;;;;;;8.38;4.45;;;8.30;99.90;;;;;;5072847;28;20020;-76
2022/09/19 05:42:59;;;;;;;4.38;3.95;;;8.30;99.90;;;;;;5072756;28;20024;-76
2022/09/19 05:45:26;;;;;;;13.50;4.68;;;8.30;99.90;;;;;;5072061;28;20503;-76
2022/09/19 05:47:52;;;;;;;6.85;3.80;;;8.30;99.90;;;;;;5066495;28;20082;-76
2022/09/19 05:50:18;;;;;;;5.65;4.03;;;8.30;99.90;;;;;;5062811;28;20033;-76
2022/09/19 05:55:29;;;;;;;8.32;4.10;;;8.30;99.90;;;;;;5064722;28;20031;-76
2022/09/19 05:57:58;;;;;;;5.97;4.03;;;8.40;99.90;;;;;;5064394;28;20024;-76
2022/09/19 06:00:27;;;;;;;8.07;4.50;;;8.40;99.90;;;;;;5067428;28;20025;-76
2022/09/19 06:03:00;;;;;;;7.15;4.20;;;8.50;99.90;;;;;;5073742;28;20056;-76
2022/09/19 06:05:27;;;;;;;13.40;4.07;;;8.50;99.90;;;;;;5070986;28;20024;-76
2022/09/19 06:07:56;;;;;;;6.00;4.00;;;8.60;99.90;;;;;;5074132;28;20028;-76
2022/09/19 06:10:23;;;;;;;4.53;3.97;;;8.70;99.90;;;;;;5073965;28;20099;-76
2022/09/19 06:12:50;;;;;;;8.38;5.20;;;8.80;99.90;;;;;;5068720;28;20021;-76
2022/09/19 06:15:15;;;;;;;7.30;4.22;;;8.90;99.90;;;;;;5060199;28;20500;-76
2022/09/19 06:17:41;;;;;;;9.73;5.00;;;9.00;99.90;;;;;;5058883;28;20044;-76
2022/09/19 06:20:08;;;;;;;8.48;4.35;;;9.10;99.90;;;;;;5063393;28;20031;-76
2022/09/19 06:22:35;;;;;;;7.82;4.28;;;9.20;99.90;;;;;;5077459;28;20025;-76
2022/09/19 06:25:01;;;;;;;8.68;4.72;;;9.30;99.90;;;;;;5075962;28;20009;-76
2022/09/19 06:27:30;;;;;;;10.93;5.25;;;9.30;99.90;;;;;;5061144;28;20059;-76
2022/09/19 06:29:56;;;;;;;9.95;4.43;;;9.40;99.90;;;;;;5073834;28;20021;-76
2022/09/19 06:32:22;;;;;;;6.15;4.10;;;9.50;99.90;;;;;;5075933;28;20031;-76
2022/09/19 06:34:48;;;;;;;6.75;4.75;;;9.60;99.90;;;;;;5073839;28;21410;-76
2022/09/19 06:37:14;;;;;;;7.90;5.10;;;9.70;99.90;;;;;;5065950;28;20053;-76
2022/09/19 06:39:39;;;;;;;13.65;5.18;;;9.70;99.90;;;;;;5064830;28;20577;-76
2022/09/19 06:42:05;;;;;;;10.57;5.10;;;9.80;99.90;;;;;;5059745;28;20025;-76
2022/09/19 06:44:31;;;;;;;11.95;4.70;;;10.00;99.90;;;;;;5062245;28;20043;-76
2022/09/19 06:46:59;;;;;;;12.00;5.35;;;10.10;99.90;;;;;;5061611;28;20025;-76
2022/09/19 06:49:25;;;;;;;9.52;4.72;;;10.10;99.90;;;;;;5066098;28;20017;-76
2022/09/19 06:51:51;;;;;;;8.93;4.95;;;10.20;99.90;;;;;;5065992;28;20066;-76
2022/09/19 06:54:17;;;;;;;11.02;4.65;;;10.30;99.90;;;;;;5072907;28;20044;-77
2022/09/19 06:56:43;;;;;;;8.02;4.32;;;10.40;99.90;;;;;;5072092;28;20492;-77
2022/09/19 06:59:09;;;;;;;12.32;5.07;;;10.60;99.90;;;;;;5070705;28;20057;-76
2022/09/19 07:01:34;;;;;;;14.73;5.28;;;10.70;99.90;;;;;;5074698;28;20020;-77
2022/09/19 07:04:01;;;;;;;7.75;4.68;;;10.90;99.90;;;;;;5072488;28;20021;-77
2022/09/19 07:06:26;;;;;;;11.05;5.47;;;11.00;99.90;;;;;;5076596;28;20031;-76
2022/09/19 07:08:53;;;;;;;9.07;5.60;;;11.10;99.90;;;;;;5061035;28;20393;-77
2022/09/19 07:11:19;;;;;;;8.10;4.85;;;11.20;99.90;;;;;;5058189;28;20025;-76
2022/09/19 07:13:49;;;;;;;7.97;5.10;;;11.30;99.90;;;;;;5060196;28;20028;-76
2022/09/19 07:16:15;;;;;;;8.73;4.88;;;11.40;99.90;;;;;;5058934;28;20112;-76
2022/09/19 07:18:40;;;;;;;7.18;4.50;;;11.50;99.90;;;;;;5063326;28;20048;-76
2022/09/19 07:21:06;;;;;;;12.88;5.80;;;11.70;99.90;;;;;;5061224;28;20079;-76
2022/09/19 07:23:32;;;;;;;9.73;4.72;;;11.70;99.90;;;;;;5066637;28;20059;-76
2022/09/19 07:25:58;;;;;;;10.20;4.90;;;11.80;99.90;;;;;;5073784;28;20025;-76
2022/09/19 07:28:24;;;;;;;11.52;5.32;;;11.90;99.90;;;;;;5074139;28;20028;-76
2022/09/19 07:30:50;;;;;;;17.30;5.72;;;12.00;99.90;;;;;;5069849;28;20029;-76
2022/09/19 07:33:20;;;;;;;12.20;5.40;;;12.20;99.90;;;;;;5070334;28;20100;-76
2022/09/19 07:35:46;;;;;;;7.57;5.07;;;12.30;99.90;;;;;;5075050;28;20031;-76
2022/09/19 07:38:14;;;;;;;9.40;4.88;;;12.30;99.90;;;;;;5075076;28;20025;-76
2022/09/19 07:40:41;;;;;;;7.25;4.70;;;12.50;99.90;;;;;;5077869;28;20016;-76
2022/09/19 07:43:06;;;;;;;9.15;4.30;;;12.60;99.90;;;;;;5077876;28;20027;-76
2022/09/19 07:45:35;;;;;;;9.88;3.95;;;12.80;99.90;;;;;;5080383;28;20017;-76
2022/09/19 07:48:01;;;;;;;15.60;4.63;;;12.90;99.90;;;;;;5062540;28;20025;-76
2022/09/19 07:50:27;;;;;;;6.60;3.90;;;13.00;99.90;;;;;;5062128;28;20021;-76
2022/09/19 07:53:07;;;;;;;7.13;4.32;;;13.10;99.90;;;;;;5065439;28;20069;-76
2022/09/19 07:55:35;;;;;;;6.18;4.03;;;13.20;99.90;;;;;;5062959;28;20397;-76
2022/09/19 07:58:03;;;;;;;9.13;3.92;;;13.30;99.90;;;;;;5070493;28;20051;-76
2022/09/19 08:00:30;;;;;;;10.27;3.63;;;13.40;99.90;;;;;;5072129;28;20033;-76
2022/09/19 08:03:06;;;;;;;7.45;3.65;;;13.60;99.90;;;;;;5072221;28;20024;-76
2022/09/19 08:05:37;;;;;;;8.93;3.97;;;13.70;99.90;;;;;;5069590;28;20501;-75
2022/09/19 08:08:04;;;;;;;7.00;4.20;;;13.80;99.90;;;;;;5075419;28;20024;-76
2022/09/19 08:10:33;;;;;;;10.63;4.00;;;13.90;99.90;;;;;;5073385;28;20021;-76
2022/09/19 08:13:03;;;;;;;6.72;3.92;;;14.00;99.90;;;;;;5077612;28;20024;-76
2022/09/19 08:15:30;;;;;;;8.07;4.05;;;14.20;99.90;;;;;;5074962;28;20024;-76
2022/09/19 08:18:05;;;;;;;9.63;4.00;;;14.30;99.90;;;;;;5076065;28;20421;-76
2022/09/19 08:20:33;;;;;;;8.13;3.60;;;14.50;99.90;;;;;;5077861;28;20021;-76
2022/09/19 08:23:01;;;;;;;9.07;4.05;;;14.70;99.90;;;;;;5068278;28;20036;-76
2022/09/19 08:25:30;;;;;;;5.78;3.45;;;14.80;99.90;;;;;;5071858;28;20020;-76
2022/09/19 08:27:56;;;;;;;10.15;3.80;;;15.00;99.90;;;;;;5073837;28;20062;-76
2022/09/19 08:30:24;;;;;;;10.88;3.72;;;15.10;99.90;;;;;;5078017;28;20500;-76
2022/09/19 08:32:50;;;;;;;5.10;3.45;;;15.30;99.90;;;;;;5078734;28;20438;-76
2022/09/19 08:35:18;;;;;;;12.00;3.83;;;15.30;99.90;;;;;;5061558;28;20374;-76
2022/09/19 08:37:45;;;;;;;5.80;3.40;;;15.40;99.90;;;;;;5067238;28;20049;-76
2022/09/19 08:40:31;;;;;;;7.22;4.05;;;15.60;99.90;;;;;;5062338;28;20013;-76
2022/09/19 08:43:03;;;;;;;8.48;3.35;;;15.70;99.90;;;;;;5064765;28;20070;-76
2022/09/19 08:45:50;;;;;;;7.97;4.38;;;15.90;99.90;;;;;;5064133;28;20028;-76
2022/09/19 08:48:54;;;;;;;15.27;4.28;;;16.10;99.90;;;;;;5068216;28;20025;-76
2022/09/19 08:51:23;;;;;;;6.43;3.58;;;16.30;99.90;;;;;;5078646;28;20027;-76
2022/09/19 08:54:03;;;;;;;12.40;3.60;;;16.50;99.90;;;;;;5070388;28;20029;-76
2022/09/19 08:56:30;;;;;;;16.23;3.75;;;16.60;99.90;;;;;;5068673;28;20066;-76
2022/09/19 08:59:01;;;;;;;9.25;3.17;;;16.80;99.90;;;;;;5076429;28;20086;-76
2022/09/19 09:01:30;;;;;;;;;;;17.00;99.90;;;;;;5071027;28;20100;-76
2022/09/19 09:04:14;;;;;;;4.05;2.50;;;17.10;99.20;;;;;;5062299;28;19943;-76
2022/09/19 09:06:46;;;;;;;9.07;2.95;;;17.30;97.40;;;;;;5069817;28;20029;-76
2022/09/19 09:09:45;;;;;;;12.18;3.03;;;17.50;96.60;;;;;;5066260;28;20023;-76
2022/09/19 09:12:35;;;;;;;5.75;3.17;;;17.70;95.90;;;;;;5067152;28;20074;-75
2022/09/19 09:15:07;;;;;;;7.43;3.47;;;17.80;97.40;;;;;;5063982;28;20056;-76
2022/09/19 09:17:39;;;;;;;10.45;3.90;;;17.90;95.10;;;;;;5070864;28;20036;-76
2022/09/19 09:20:47;;;;;;;7.25;3.30;;;18.00;95.00;;;;;;5069270;28;20017;-76
2022/09/19 09:23:21;;;;;;;10.65;3.25;;;18.10;95.50;;;;;;5074641;28;20123;-75
2022/09/19 09:25:49;;;;;;;12.90;2.83;;;18.10;95.10;;;;;;5074530;28;20039;-75
2022/09/19 09:28:40;;;;;;;8.40;3.13;;;18.20;95.40;;;;;;5073762;28;20028;-75
2022/09/19 09:31:25;;;;;;;9.57;2.65;;;18.30;95.00;;;;;;5076747;28;20024;-75
2022/09/19 09:34:05;;;;;;;12.23;2.67;;;18.60;94.40;;;;;;5058921;28;20017;-75
2022/09/19 09:36:39;;;;;;;8.45;3.15;;;18.70;94.10;;;;;;5060991;28;20107;-75
2022/09/19 09:39:20;;;;;;;16.58;3.35;;;18.80;93.90;;;;;;5059234;28;20075;-74
2022/09/19 09:42:00;;;;;;;8.23;2.35;;;18.90;93.10;;;;;;5061466;28;20131;-74
2022/09/19 09:44:44;;;;;;;6.50;2.55;;;19.10;92.20;;;;;;5064925;28;20025;-75
2022/09/19 09:47:30;;;;;;;10.60;2.55;;;19.20;91.00;;;;;;5063844;28;20031;-76
2022/09/19 09:50:15;;;;;;;5.45;2.78;;;19.30;90.10;;;;;;5064915;28;20033;-75
2022/09/19 09:53:12;;;;;;;6.32;2.60;;;19.40;90.60;;;;;;5067348;28;20024;-75
2022/09/19 09:56:15;;;;;;;7.57;2.67;;;19.50;89.80;;;;;;5070746;28;20020;-75
2022/09/19 10:03:34;;;;;;;7.57;2.33;;;19.60;89.40;;;;;;5071184;28;20123;-75
2022/09/19 10:05:42;;;;;;;6.38;2.88;;;19.90;87.60;;;;;;5074822;28;20036;-75
2022/09/19 10:08:22;;;;;;;4.50;2.55;;;20.00;88.40;;;;;;5058462;28;20075;-75
2022/09/19 10:10:53;;;;;;;10.50;2.90;;;20.10;85.40;;;;;;5061008;28;20035;-75
2022/09/19 10:13:30;;;;;;;13.27;3.03;;;20.20;85.30;;;;;;5060597;28;20040;-76
2022/09/19 10:16:02;;;;;;;6.22;2.80;;;20.30;84.60;;;;;;5080239;28;20032;-75
2022/09/19 10:18:41;;;;;;;8.18;2.75;;;20.40;84.10;;;;;;5064484;28;20519;-75
2022/09/19 10:21:07;;;;;;;6.88;2.50;;;20.50;82.10;;;;;;5064867;28;20450;-74
2022/09/19 10:23:33;;;;;;;8.90;3.03;;;20.60;82.60;;;;;;5068360;28;20024;-76
2022/09/19 10:26:07;;;;;;;14.40;2.95;;;20.70;81.10;;;;;;5073080;28;20080;-75
2022/09/19 10:28:41;;;;;;;9.27;3.10;;;20.70;80.70;;;;;;5071023;28;20073;-75
2022/09/19 10:31:34;;;;;;;9.88;2.95;;;20.80;80.60;;;;;;5068558;28;20412;-75
2022/09/19 10:34:04;;;;;;;5.07;2.22;;;20.90;80.90;;;;;;5068611;28;20021;-75
2022/09/19 10:36:34;;;;;;;6.70;2.63;;;20.90;79.20;;;;;;5071805;28;20159;-75
2022/09/19 10:39:13;;;;;;;6.50;2.17;;;21.10;80.00;;;;;;5074969;28;20029;-76
2022/09/19 10:41:42;;;;;;;10.00;3.17;;;21.20;78.60;;;;;;5069748;28;20017;-75
2022/09/19 10:44:19;;;;;;;9.15;2.58;;;21.30;78.00;;;;;;5057986;28;20491;-75
2022/09/19 10:46:49;;;;;;;8.82;2.33;;;21.30;77.30;;;;;;5059114;28;20384;-75
2022/09/19 10:49:20;;;;;;;9.63;2.37;;;21.40;77.60;;;;;;5062248;28;20020;-76
2022/09/19 10:51:48;;;;;;;6.65;1.92;;;21.50;75.10;;;;;;5061431;28;20020;-76
2022/09/19 10:54:37;;;;;;;5.72;2.72;;;21.50;74.50;;;;;;5065604;28;20027;-75
2022/09/19 10:57:40;;;;;;;5.90;1.98;;;21.50;75.80;;;;;;5070904;28;20464;-75
2022/09/19 11:00:24;;;;;;;3.65;2.05;;;21.70;75.00;;;;;;5068523;28;20031;-75
2022/09/19 11:02:57;;;;;;;6.07;2.60;;;21.80;74.30;;;;;;5075061;28;20023;-75
2022/09/19 11:05:27;;;;;;;5.38;2.08;;;21.90;72.10;;;;;;5075647;28;20388;-75
2022/09/19 11:08:00;;;;;;;5.43;2.00;;;22.00;72.80;;;;;;5056728;28;20481;-75
2022/09/19 11:10:38;;;;;;;6.93;1.98;;;22.20;72.60;;;;;;5061099;28;20055;-75
2022/09/19 11:13:22;;;;;;;4.43;1.95;;;22.30;71.20;;;;;;5060189;28;20448;-74
2022/09/19 11:16:12;;;;;;;12.50;2.38;;;22.20;70.60;;;;;;5069483;28;20064;-75
2022/09/19 11:19:00;;;;;;;5.35;1.95;;;22.30;73.20;;;;;;5065883;28;20024;-75
2022/09/19 11:22:14;;;;;;;6.30;2.20;;;22.40;69.20;;;;;;5069711;28;20031;-75
2022/09/19 11:24:44;;;;;;;6.85;1.80;;;22.50;70.10;;;;;;5063087;28;20501;-75
2022/09/19 11:27:37;;;;;;;5.85;2.05;;;22.60;70.40;;;;;;5067882;28;20453;-75
2022/09/19 11:30:11;;;;;;;4.88;1.88;;;22.70;67.70;;;;;;5069657;28;20492;-75
2022/09/19 11:32:37;;;;;;;5.15;1.70;;;22.60;68.40;;;;;;5078839;28;20028;-75
2022/09/19 11:35:27;;;;;;;6.28;1.80;;;22.60;69.00;;;;;;5072787;28;20027;-75
2022/09/19 11:38:06;;;;;;;3.20;2.00;;;22.60;65.90;;;;;;5072224;28;20032;-75
2022/09/19 11:41:15;;;;;;;9.68;2.42;;;22.60;66.70;;;;;;5076077;28;20024;-75
2022/09/19 11:43:44;;;;;;;3.70;1.65;;;22.70;67.50;;;;;;5068272;28;20397;-76
2022/09/19 11:46:15;;;;;;;4.03;2.25;;;22.80;68.80;;;;;;5058373;28;20021;-76
2022/09/19 11:48:58;;;;;;;5.50;1.85;;;22.90;69.10;;;;;;5058171;28;20029;-76
2022/09/19 11:51:34;;;;;;;3.95;1.75;;;23.00;65.50;;;;;;5063733;28;20520;-77
2022/09/19 11:54:02;;;;;;;3.35;2.03;;;23.00;64.20;;;;;;5061606;28;20029;-76
2022/09/19 11:56:56;;;;;;;4.07;1.95;;;23.10;64.20;;;;;;5072353;28;20100;-75
2022/09/19 11:59:51;;;;;;;6.72;2.45;;;23.00;64.40;;;;;;5073704;28;20029;-75
2022/09/19 12:02:50;;;;;;;6.22;2.05;;;23.10;64.20;;;;;;5071151;28;20496;-75
2022/09/19 12:05:28;;;;;;;4.72;1.90;;;23.20;65.00;;;;;;5075077;28;20024;-75
2022/09/19 12:08:20;;;;;;;5.75;2.63;;;23.30;63.80;;;;;;5056375;28;20016;-75
2022/09/19 12:11:00;;;;;;;7.10;2.45;;;23.40;60.70;;;;;;5058030;28;20021;-75
2022/09/19 12:13:51;;;;;;;5.60;2.00;;;23.40;59.10;;;;;;5058535;28;20028;-76
2022/09/19 12:16:25;;;;;;;5.40;2.13;;;23.50;60.90;;;;;;5061521;28;20028;-75
2022/09/19 12:18:58;;;;;;;3.25;2.20;;;23.60;61.20;;;;;;5068224;28;20156;-75
2022/09/19 12:21:33;;;;;;;3.55;2.20;;;23.60;61.10;;;;;;5065567;28;20021;-75
2022/09/19 12:26:53;;;;;;;;;;;23.70;60.00;;;;;;5071709;28;20031;-74
2022/09/19 12:29:32;;;;;;;2.60;1.80;;;23.80;60.40;;;;;;5072374;28;19908;-75
2022/09/19 12:32:07;;;;;;;5.38;2.20;;;23.80;61.00;;;;;;5075735;28;20183;-76
2022/09/19 12:35:04;;;;;;;3.83;2.35;;;23.90;62.40;;;;;;5073396;28;20020;-75
2022/09/19 12:37:39;;;;;;;4.57;1.98;;;24.00;60.30;;;;;;5076269;28;20052;-76
2022/09/19 12:40:16;;;;;;;2.55;1.75;;;24.20;60.10;;;;;;5078726;28;20065;-75
2022/09/19 12:43:23;;;;;;;9.10;2.30;;;24.20;58.20;;;;;;5065472;28;20052;-75
2022/09/19 12:46:15;;;;;;;5.85;2.22;;;24.20;59.50;;;;;;5057556;28;20057;-75
2022/09/19 12:48:47;;;;;;;3.78;2.20;;;24.30;58.40;;;;;;5068437;28;20039;-76
2022/09/19 12:51:25;;;;;;;3.88;1.80;;;24.30;57.80;;;;;;5074894;28;20021;-75
2022/09/19 12:54:03;;;;;;;3.13;2.13;;;24.40;56.20;;;;;;5075257;28;20377;-75
2022/09/19 12:56:46;;;;;;;6.75;2.70;;;24.40;57.10;;;;;;5073919;28;20028;-76
2022/09/19 12:59:12;;;;;;;4.90;2.30;;;24.40;56.90;;;;;;5074207;28;20447;-75
2022/09/19 13:01:47;;;;;;;6.38;1.83;;;24.40;56.50;;;;;;5072484;28;20032;-76
2022/09/19 13:04:28;;;;;;;5.35;2.33;;;24.40;57.90;;;;;;5070645;28;20035;-75
2022/09/19 13:07:11;;;;;;;6.85;1.90;;;24.60;58.60;;;;;;5074939;28;20553;-76
2022/09/19 13:09:54;;;;;;;3.75;1.95;;;24.60;57.10;;;;;;5078720;28;20028;-75
2022/09/19 13:12:38;;;;;;;5.15;1.90;;;24.70;56.40;;;;;;5077285;28;20481;-76
2022/09/19 13:15:15;;;;;;;8.15;2.55;;;24.70;56.60;;;;;;5065741;28;20025;-75
2022/09/19 13:23:31;;;;;;;2.55;1.85;;;24.90;55.40;;;;;;5078913;28;20085;-76
2022/09/19 13:26:01;;;;;;;5.18;2.50;;;25.00;54.50;;;;;;5071277;28;20067;-76
2022/09/19 13:28:34;;;;;;;4.78;1.95;;;25.00;53.80;;;;;;5071473;28;20020;-75
2022/09/19 13:31:06;;;;;;;3.67;2.17;;;25.10;53.70;;;;;;5069857;28;20025;-76
2022/09/19 13:33:58;;;;;;;4.40;1.85;;;25.30;53.00;;;;;;5066196;28;20081;-75
2022/09/19 13:36:24;;;;;;;6.65;2.00;;;25.20;53.20;;;;;;5064466;28;20509;-76
2022/09/19 13:38:53;;;;;;;8.35;2.85;;;25.30;53.70;;;;;;5073560;28;20020;-77
2022/09/19 13:41:43;;;;;;;4.22;2.35;;;25.40;55.00;;;;;;5068491;28;20032;-76
2022/09/19 13:44:24;;;;;;;6.50;2.33;;;25.60;53.30;;;;;;5068526;28;20046;-75